createdAt,value
2023-09-22T00:10:01.096Z,242.60
2023-09-22T00:30:01.321Z,234.00
2023-09-22T00:50:00.931Z,234.50
2023-09-22T01:10:01.164Z,253.20
2023-09-22T01:30:01.137Z,244.60
2023-09-22T01:50:01.116Z,235.00
2023-09-22T02:10:01.071Z,250.20
2023-09-22T02:30:01.315Z,252.30
2023-09-22T02:50:01.173Z,258.10
2023-09-22T03:10:01.463Z,240.20
2023-09-22T03:30:01.173Z,247.00
2023-09-22T03:50:01.194Z,248.40
2023-09-22T04:10:01.128Z,235.20
2023-09-22T04:30:01.175Z,233.40
2023-09-22T04:50:01.194Z,218.90
2023-09-22T05:30:01.193Z,222.80
2023-09-22T05:50:01.316Z,229.60
2023-09-22T06:10:01.112Z,213.90
2023-09-22T06:30:01.436Z,220.60
2023-09-22T06:50:01.136Z,234.60
2023-09-22T07:10:01.316Z,226.20
2023-09-22T07:30:01.128Z,222.90
2023-09-22T07:50:01.485Z,209.30
2023-09-22T08:10:01.105Z,211.00
2023-09-22T08:30:01.151Z,234.40
2023-09-22T08:50:01.089Z,229.60
2023-09-22T09:10:01.156Z,224.60
2023-09-22T09:30:01.262Z,231.80
2023-09-22T09:50:01.694Z,229.20
2023-09-22T10:10:01.658Z,229.40
2023-09-22T10:30:01.601Z,239.20
2023-09-22T10:50:01.160Z,227.70
2023-09-22T11:10:01.153Z,221.90
2023-09-22T11:30:01.102Z,222.10
2023-09-22T11:50:01.048Z,228.70
2023-09-22T12:10:01.142Z,236.60
2023-09-22T12:30:01.131Z,236.60
2023-09-22T12:50:01.080Z,245.20
2023-09-22T13:10:01.382Z,237.50
2023-09-22T13:30:01.108Z,245.80
2023-09-22T13:50:01.340Z,239.50
2023-09-22T14:10:01.262Z,233.90
2023-09-22T14:30:01.115Z,229.10
2023-09-22T14:50:01.279Z,222.50
2023-09-22T15:10:01.139Z,239.50
2023-09-22T15:30:01.525Z,228.80
2023-09-22T16:10:01.091Z,233.40
2023-09-22T16:30:01.153Z,236.00
2023-09-22T16:40:04.042Z,235.10
2023-09-22T16:50:01.892Z,226.20
2023-09-22T17:10:01.188Z,227.10
2023-09-22T17:50:02.066Z,222.00
2023-09-22T18:10:01.552Z,231.00
2023-09-22T18:30:02.611Z,223.40
2023-09-22T18:50:02.947Z,222.80
2023-09-22T19:10:01.418Z,222.20
2023-09-22T19:30:01.206Z,217.80
2023-09-22T19:50:01.131Z,215.20
2023-09-22T20:30:01.127Z,210.60
2023-09-22T20:50:01.246Z,209.80
2023-09-22T21:10:01.178Z,209.80
2023-09-22T21:30:01.229Z,205.20
2023-09-22T21:50:01.433Z,202.90
2023-09-22T22:10:01.073Z,206.00
2023-09-22T22:30:02.647Z,203.80
2023-09-22T22:50:01.346Z,213.50
2023-09-22T23:10:01.858Z,215.10
2023-09-22T23:30:01.068Z,212.40
2023-09-22T23:50:01.552Z,209.00
